createdAt,value
2022-11-23T08:54:34.323Z,0.9
2022-11-23T08:59:34.399Z,0.9
2022-11-23T09:04:34.279Z,1.3
2022-11-23T09:09:33.609Z,1.3
2022-11-23T09:14:34.793Z,1.1
2022-11-23T09:19:33.898Z,1.1
2022-11-23T09:24:34.010Z,1.1
2022-11-23T09:29:34.321Z,1.1
2022-11-23T09:34:34.131Z,1.5
2022-11-23T09:39:34.245Z,1.5
2022-11-23T09:44:34.241Z,0.9
2022-11-23T09:49:33.468Z,0.9
2022-11-23T09:54:34.751Z,1.3
2022-11-23T09:59:34.304Z,1.3
2022-11-23T10:04:34.379Z,1.3
2022-11-23T10:09:34.226Z,1.3
2022-11-23T10:14:33.849Z,1.2
2022-11-23T10:19:33.795Z,1.2
2022-11-23T10:24:34.744Z,1.3
2022-11-23T10:29:33.545Z,1.3
2022-11-23T10:34:34.317Z,1.5
2022-11-23T10:39:33.683Z,1.5
2022-11-23T10:44:34.247Z,1.3
2022-11-23T10:49:34.248Z,1.3
2022-11-23T10:54:34.264Z,1.3
2022-11-23T10:59:34.297Z,1.3
2022-11-23T11:04:33.993Z,1.3
2022-11-23T11:09:34.018Z,1.3
2022-11-23T11:14:42.816Z,1.4
2022-11-23T11:19:34.161Z,1.4
2022-11-23T11:24:34.707Z,1
2022-11-23T11:29:38.725Z,1
2022-11-23T11:34:34.567Z,1.7
2022-11-23T11:39:33.673Z,1.7
2022-11-23T11:44:34.187Z,1.6
2022-11-23T11:49:34.181Z,1.6
2022-11-23T11:54:33.837Z,1.3
2022-11-23T11:59:33.997Z,1.3
2022-11-23T12:04:34.604Z,1.3
2022-11-23T12:09:33.922Z,1.3
2022-11-23T12:14:34.097Z,1.3
2022-11-23T12:19:34.240Z,1.3
2022-11-23T12:24:34.435Z,0.9
2022-11-23T12:29:34.428Z,0.9
2022-11-23T12:34:34.873Z,0.9
2022-11-23T12:39:33.820Z,0.9
2022-11-23T12:44:34.442Z,1.3
2022-11-23T12:49:38.779Z,1.3
2022-11-23T12:54:34.603Z,1.1
2022-11-23T12:59:33.708Z,1.1
2022-11-23T13:04:34.489Z,1.3
2022-11-23T13:09:34.291Z,1.8
2022-11-23T13:14:34.619Z,1.8
2022-11-23T13:19:34.367Z,1.8
2022-11-23T13:24:34.827Z,1.3
2022-11-23T13:29:33.874Z,1.3
2022-11-23T13:34:34.496Z,1.3
2022-11-23T13:39:34.529Z,1
2022-11-23T13:44:34.418Z,1
2022-11-23T13:49:34.524Z,1.3
2022-11-23T13:54:34.211Z,1.3
2022-11-23T13:59:34.228Z,1.3
2022-11-23T14:04:34.777Z,1.3
2022-11-23T14:09:34.102Z,1.3
2022-11-23T14:14:34.809Z,1.2
2022-11-23T14:19:33.943Z,1.2
2022-11-23T14:24:34.711Z,1.4
2022-11-23T14:29:34.098Z,1.4
2022-11-23T14:34:34.819Z,1.3
2022-11-23T14:39:34.039Z,1.3
2022-11-23T14:44:38.135Z,1.2
2022-11-23T14:49:34.092Z,1.2
2022-11-23T14:54:34.167Z,0.9
2022-11-23T14:59:34.355Z,1.3
2022-11-23T15:04:34.231Z,1.3
2022-11-23T15:09:33.941Z,1.3
2022-11-23T15:14:33.872Z,0.9
2022-11-23T15:19:34.378Z,0.9
2022-11-23T15:24:34.314Z,0.9
2022-11-23T15:29:34.474Z,0.9
2022-11-23T15:34:34.197Z,1.3
2022-11-23T15:39:34.832Z,1.2
2022-11-23T15:44:34.313Z,1.2
2022-11-23T15:49:34.353Z,1.2
2022-11-23T15:54:34.864Z,1.4
2022-11-23T15:59:34.230Z,1.4
2022-11-23T16:04:34.209Z,1.7
2022-11-23T16:09:51.139Z,1.7
2022-11-23T16:14:34.328Z,1.8
2022-11-23T16:19:34.851Z,1.8
2022-11-23T16:24:34.541Z,1.3
2022-11-23T16:29:33.922Z,1.3
2022-11-23T16:34:35.089Z,0.9
2022-11-23T16:39:33.816Z,0.9
2022-11-23T16:44:38.752Z,1.3
2022-11-23T16:49:34.892Z,0.9
2022-11-23T16:54:34.201Z,0.9
2022-11-23T16:59:34.936Z,0.9
2022-11-23T17:04:34.197Z,0.9
2022-11-23T17:09:34.468Z,0.9
2022-11-23T17:14:34.249Z,0.9
2022-11-23T17:19:35.081Z,0.9
2022-11-23T17:24:34.416Z,0.9
2022-11-23T17:29:38.987Z,1.3
2022-11-23T17:34:34.677Z,1.3
2022-11-23T17:39:34.304Z,1.3
2022-11-23T17:44:34.814Z,1.3
2022-11-23T17:49:34.536Z,1.3
2022-11-23T17:54:34.719Z,1.3
2022-11-23T17:59:34.451Z,1.3
2022-11-23T18:04:34.488Z,1.3
2022-11-23T18:09:34.313Z,1.3
2022-11-23T18:14:34.470Z,1.3
2022-11-23T18:19:34.107Z,1.3
2022-11-23T18:24:34.162Z,1.3
2022-11-23T18:29:34.779Z,1.6
2022-11-23T18:34:34.690Z,1.6
2022-11-23T18:39:34.304Z,1.6
2022-11-23T18:44:34.419Z,1.3
2022-11-23T18:49:34.274Z,1.3
2022-11-23T18:54:34.271Z,1.3
2022-11-23T18:59:56.743Z,1.3
2022-11-23T19:04:34.465Z,1
2022-11-23T19:09:34.201Z,1
2022-11-23T19:14:33.926Z,0.9
2022-11-23T19:19:34.522Z,1.2
2022-11-23T19:24:33.867Z,1.2
2022-11-23T19:29:34.631Z,1.2
2022-11-23T19:34:34.621Z,1.3
2022-11-23T19:39:34.276Z,1.3
2022-11-23T19:44:34.149Z,1.3
2022-11-23T19:49:34.927Z,1.2
2022-11-23T19:54:34.800Z,1.2
2022-11-23T19:59:34.373Z,1.2
2022-11-23T20:04:34.559Z,1.1
2022-11-23T20:09:34.302Z,1.1
2022-11-23T20:14:34.601Z,0.9
2022-11-23T20:19:35.213Z,0.8
2022-11-23T20:24:34.017Z,0.8
2022-11-23T20:29:34.709Z,0.8
2022-11-23T20:34:34.834Z,0.9
2022-11-23T20:39:34.839Z,0.9
2022-11-23T20:44:34.469Z,0.9
2022-11-23T20:49:33.933Z,0.9
2022-11-23T20:54:34.910Z,0.9
2022-11-23T20:59:33.863Z,0.9
2022-11-23T21:04:34.884Z,0.4
2022-11-23T21:09:34.648Z,0.4
2022-11-23T21:14:34.636Z,0.6
2022-11-23T21:19:34.450Z,0.6
2022-11-23T21:24:34.545Z,0.8
2022-11-23T21:29:34.408Z,0.8
2022-11-23T21:34:34.484Z,0.4
2022-11-23T21:39:34.662Z,0.4
2022-11-23T21:44:34.435Z,0.5
2022-11-23T21:49:34.290Z,0.5
2022-11-23T21:54:35.117Z,0.4
2022-11-23T21:59:34.437Z,0.4
2022-11-23T22:04:34.481Z,0.4
2022-11-23T22:09:34.678Z,0.4
2022-11-23T22:14:34.667Z,0.4
2022-11-23T22:19:34.771Z,0.4
2022-11-23T22:24:34.717Z,0.7
2022-11-23T22:29:34.771Z,0.5
2022-11-23T22:34:34.120Z,0.5
2022-11-23T22:39:34.301Z,0.5
2022-11-23T22:44:34.813Z,0.4
2022-11-23T22:49:34.688Z,0.4
2022-11-23T22:54:34.805Z,0.4
2022-11-23T22:59:34.601Z,0.4
2022-11-23T23:04:34.947Z,0.4
2022-11-23T23:09:34.250Z,0.4
2022-11-23T23:14:34.783Z,0.4
2022-11-23T23:19:34.932Z,0.4
2022-11-23T23:24:34.752Z,0.4
2022-11-23T23:29:34.826Z,0.4
2022-11-23T23:34:34.307Z,0.2
2022-11-23T23:39:34.466Z,0.4
2022-11-23T23:44:34.768Z,0.4
2022-11-23T23:49:34.876Z,0.4
2022-11-23T23:54:35.166Z,0.4
2022-11-23T23:59:33.957Z,0.4
